Imperial, NE

6:57 PM MDT on September 28, 2016 (GMT -0600)
Imperial Municipal | | Change Station

Elev 3274 ft 40.51 °N, 101.62 °W | Updated 4 minutes ago

Clear
Clear
65 °F
Feels Like 65 °F
N
9
Wind Variable Wind from East

Today
High -- | Low -- °F
--% Chance of Precip.
Yesterday
High -- | Low -- °F
Precip. -- in
Pressure 30.27 in
Visibility 10.0 miles
Clouds Clear
Dew Point 39 °F
Humidity 39%
Rainfall 0.00 in
Snow Depth Not available.
6:40 AM 6:32 PM
Waning Crescent, 4% visible
METAR KIML 290053Z AUTO 08008KT 10SM CLR 18/04 A3028 RMK AO2 SLP248 T01830039
Pressure 30.27 in
Visibility 10.0 miles
Clouds Clear
Dew Point 39 °F
Humidity 39%
Rainfall 0.00 in
Snow Depth Not available.
6:40 AM 6:32 PM
Waning Crescent, 4% visible
METAR KIML 290053Z AUTO 08008KT 10SM CLR 18/04 A3028 RMK AO2 SLP248 T01830039

10-Day Weather Forecast

Almanac

Astronomy

Sep. 28, 2016 Rise Set
Actual Time
Civil Twilight
Nautical Twilight
Astronomical Twilight
Moon
Length of Visible Light
Length of Day
Tomorrow will be .
, % of the Moon is Illuminated

Today's Extremes

State Highs State Lows

Community

WunderPhotos

Upload Photos

1,942,370 photos uploaded!

WunderBlog® & News

Nearby

Air Quality

  Air Quality AQ Index Pollutant
Not available.

Snow Depth

Station Depth Elevation

Earthquake Activity

City Distance Mag. Time & Date
Minimum magnitude displayed is 2.5.

Coastal Water Temperatures

Place Temperature

Stations

Nearby Weather Stations

Station Location Temp. Windchill Dew Point Humidity Wind Precip. Elev Updated Type
                   

Watches & Warnings

There are currently no watches in effect.